sensor_id;sensor_type;location;lat;lon;timestamp;temperature;humidity
54034;DHT22;39952;40.122;18.294;2022-07-29T00:01:04;29.80;61.20
54034;DHT22;39952;40.122;18.294;2022-07-29T00:04:11;29.80;61.40
54034;DHT22;39952;40.122;18.294;2022-07-29T00:07:19;29.60;61.80
54034;DHT22;39952;40.122;18.294;2022-07-29T00:10:26;29.40;62.60
54034;DHT22;39952;40.122;18.294;2022-07-29T00:13:33;29.20;63.60
54034;DHT22;39952;40.122;18.294;2022-07-29T00:16:40;29.30;62.90
54034;DHT22;39952;40.122;18.294;2022-07-29T00:19:47;29.60;62.60
54034;DHT22;39952;40.122;18.294;2022-07-29T00:22:55;29.70;62.20
54034;DHT22;39952;40.122;18.294;2022-07-29T00:26:02;29.70;62.20
54034;DHT22;39952;40.122;18.294;2022-07-29T00:29:09;29.70;62.10
54034;DHT22;39952;40.122;18.294;2022-07-29T00:32:36;29.70;62.20
54034;DHT22;39952;40.122;18.294;2022-07-29T00:35:42;29.40;62.80
54034;DHT22;39952;40.122;18.294;2022-07-29T00:38:54;29.30;63.20
54034;DHT22;39952;40.122;18.294;2022-07-29T00:42:03;29.10;64.10
54034;DHT22;39952;40.122;18.294;2022-07-29T00:45:10;28.90;64.90
54034;DHT22;39952;40.122;18.294;2022-07-29T00:48:17;28.70;65.90
54034;DHT22;39952;40.122;18.294;2022-07-29T00:51:25;28.70;65.70
54034;DHT22;39952;40.122;18.294;2022-07-29T00:54:34;29.20;64.60
54034;DHT22;39952;40.122;18.294;2022-07-29T00:57:42;29.50;63.60
54034;DHT22;39952;40.122;18.294;2022-07-29T01:00:49;29.50;63.40
54034;DHT22;39952;40.122;18.294;2022-07-29T01:03:55;29.60;63.10
54034;DHT22;39952;40.122;18.294;2022-07-29T01:07:03;29.70;62.50
54034;DHT22;39952;40.122;18.294;2022-07-29T01:10:13;29.70;63.10
54034;DHT22;39952;40.122;18.294;2022-07-29T01:13:21;29.40;63.60
54034;DHT22;39952;40.122;18.294;2022-07-29T01:16:31;29.20;64.40
54034;DHT22;39952;40.122;18.294;2022-07-29T01:19:52;28.90;65.30
54034;DHT22;39952;40.122;18.294;2022-07-29T01:23:40;28.80;65.70
54034;DHT22;39952;40.122;18.294;2022-07-29T01:26:54;28.70;66.30
54034;DHT22;39952;40.122;18.294;2022-07-29T01:30:06;29.00;65.50
54034;DHT22;39952;40.122;18.294;2022-07-29T01:33:15;28.90;65.60
54034;DHT22;39952;40.122;18.294;2022-07-29T01:36:44;28.80;65.90
54034;DHT22;39952;40.122;18.294;2022-07-29T01:39:55;28.50;66.90
54034;DHT22;39952;40.122;18.294;2022-07-29T01:43:08;28.50;67.10
54034;DHT22;39952;40.122;18.294;2022-07-29T01:46:21;28.60;67.20
54034;DHT22;39952;40.122;18.294;2022-07-29T01:49:35;28.60;67.00
54034;DHT22;39952;40.122;18.294;2022-07-29T01:52:49;28.60;67.10
54034;DHT22;39952;40.122;18.294;2022-07-29T01:55:57;28.70;67.00
54034;DHT22;39952;40.122;18.294;2022-07-29T01:59:07;28.60;67.30
54034;DHT22;39952;40.122;18.294;2022-07-29T02:02:16;28.50;67.70
54034;DHT22;39952;40.122;18.294;2022-07-29T02:05:27;28.70;67.30
54034;DHT22;39952;40.122;18.294;2022-07-29T02:08:37;28.80;67.20
54034;DHT22;39952;40.122;18.294;2022-07-29T02:11:48;28.80;67.30
54034;DHT22;39952;40.122;18.294;2022-07-29T02:14:57;28.60;68.00
54034;DHT22;39952;40.122;18.294;2022-07-29T02:18:11;28.60;68.20
54034;DHT22;39952;40.122;18.294;2022-07-29T02:21:24;28.50;68.70
54034;DHT22;39952;40.122;18.294;2022-07-29T02:24:31;28.50;68.70
54034;DHT22;39952;40.122;18.294;2022-07-29T02:27:41;28.70;68.00
54034;DHT22;39952;40.122;18.294;2022-07-29T02:30:48;28.50;68.90
54034;DHT22;39952;40.122;18.294;2022-07-29T02:33:58;28.70;68.60
54034;DHT22;39952;40.122;18.294;2022-07-29T02:37:08;28.60;68.60
54034;DHT22;39952;40.122;18.294;2022-07-29T02:40:15;28.60;68.90
54034;DHT22;39952;40.122;18.294;2022-07-29T02:43:23;28.80;68.00
54034;DHT22;39952;40.122;18.294;2022-07-29T02:46:33;28.70;68.50
54034;DHT22;39952;40.122;18.294;2022-07-29T02:49:46;28.80;68.20
54034;DHT22;39952;40.122;18.294;2022-07-29T02:52:58;28.70;68.80
54034;DHT22;39952;40.122;18.294;2022-07-29T02:56:11;28.70;68.50
54034;DHT22;39952;40.122;18.294;2022-07-29T02:59:23;28.80;68.90
54034;DHT22;39952;40.122;18.294;2022-07-29T03:02:35;28.90;68.20
54034;DHT22;39952;40.122;18.294;2022-07-29T03:05:44;28.70;68.90
54034;DHT22;39952;40.122;18.294;2022-07-29T03:08:51;28.70;68.70
54034;DHT22;39952;40.122;18.294;2022-07-29T03:12:00;28.70;69.20
54034;DHT22;39952;40.122;18.294;2022-07-29T03:15:08;28.80;68.50
54034;DHT22;39952;40.122;18.294;2022-07-29T03:18:16;28.70;68.90
54034;DHT22;39952;40.122;18.294;2022-07-29T03:21:24;28.60;69.40
54034;DHT22;39952;40.122;18.294;2022-07-29T03:24:32;28.60;69.30
54034;DHT22;39952;40.122;18.294;2022-07-29T03:27:40;28.80;68.60
54034;DHT22;39952;40.122;18.294;2022-07-29T03:30:47;28.70;68.80
54034;DHT22;39952;40.122;18.294;2022-07-29T03:33:54;28.80;68.70
54034;DHT22;39952;40.122;18.294;2022-07-29T03:37:02;28.70;68.60
54034;DHT22;39952;40.122;18.294;2022-07-29T03:40:11;28.60;69.40
54034;DHT22;39952;40.122;18.294;2022-07-29T03:43:19;28.50;69.70
54034;DHT22;39952;40.122;18.294;2022-07-29T03:46:26;28.40;69.60
54034;DHT22;39952;40.122;18.294;2022-07-29T03:49:36;28.30;69.80
54034;DHT22;39952;40.122;18.294;2022-07-29T03:52:45;28.30;69.90
54034;DHT22;39952;40.122;18.294;2022-07-29T03:55:54;28.40;70.00
54034;DHT22;39952;40.122;18.294;2022-07-29T03:59:04;28.80;68.40
54034;DHT22;39952;40.122;18.294;2022-07-29T04:02:11;29.10;67.20
54034;DHT22;39952;40.122;18.294;2022-07-29T04:05:19;29.40;65.80
54034;DHT22;39952;40.122;18.294;2022-07-29T04:08:28;29.60;65.30
54034;DHT22;39952;40.122;18.294;2022-07-29T04:11:36;29.80;64.50
54034;DHT22;39952;40.122;18.294;2022-07-29T04:14:42;29.80;64.40
54034;DHT22;39952;40.122;18.294;2022-07-29T04:17:49;30.00;63.60
54034;DHT22;39952;40.122;18.294;2022-07-29T04:20:56;30.10;63.10
54034;DHT22;39952;40.122;18.294;2022-07-29T04:24:07;30.10;63.00
54034;DHT22;39952;40.122;18.294;2022-07-29T04:27:14;29.80;63.80
54034;DHT22;39952;40.122;18.294;2022-07-29T04:30:21;29.80;63.80
54034;DHT22;39952;40.122;18.294;2022-07-29T04:33:28;29.60;64.50
54034;DHT22;39952;40.122;18.294;2022-07-29T04:36:35;29.80;63.80
54034;DHT22;39952;40.122;18.294;2022-07-29T04:39:43;29.60;64.60
54034;DHT22;39952;40.122;18.294;2022-07-29T04:42:50;29.40;65.20
54034;DHT22;39952;40.122;18.294;2022-07-29T04:45:56;29.30;65.50
54034;DHT22;39952;40.122;18.294;2022-07-29T04:49:03;29.30;65.90
54034;DHT22;39952;40.122;18.294;2022-07-29T04:52:10;29.10;66.20
54034;DHT22;39952;40.122;18.294;2022-07-29T04:55:19;29.20;66.50
54034;DHT22;39952;40.122;18.294;2022-07-29T04:58:26;29.10;66.60
54034;DHT22;39952;40.122;18.294;2022-07-29T05:01:33;29.20;66.30
54034;DHT22;39952;40.122;18.294;2022-07-29T05:04:39;29.30;66.10
54034;DHT22;39952;40.122;18.294;2022-07-29T05:07:46;29.40;65.70
54034;DHT22;39952;40.122;18.294;2022-07-29T05:10:54;29.40;65.80
54034;DHT22;39952;40.122;18.294;2022-07-29T05:14:01;29.40;65.50
54034;DHT22;39952;40.122;18.294;2022-07-29T05:17:08;29.50;65.40
54034;DHT22;39952;40.122;18.294;2022-07-29T05:20:15;29.80;64.60
54034;DHT22;39952;40.122;18.294;2022-07-29T05:23:23;29.80;63.90
54034;DHT22;39952;40.122;18.294;2022-07-29T05:26:31;29.90;63.80
54034;DHT22;39952;40.122;18.294;2022-07-29T05:29:38;29.90;63.90
54034;DHT22;39952;40.122;18.294;2022-07-29T05:32:45;29.80;64.10
54034;DHT22;39952;40.122;18.294;2022-07-29T05:35:52;29.90;63.60
54034;DHT22;39952;40.122;18.294;2022-07-29T05:39:02;30.10;62.70
54034;DHT22;39952;40.122;18.294;2022-07-29T05:42:11;30.00;62.80
54034;DHT22;39952;40.122;18.294;2022-07-29T05:45:18;29.90;62.10
54034;DHT22;39952;40.122;18.294;2022-07-29T05:48:25;30.20;60.70
54034;DHT22;39952;40.122;18.294;2022-07-29T05:51:32;30.60;59.10
54034;DHT22;39952;40.122;18.294;2022-07-29T05:54:39;30.70;57.40
54034;DHT22;39952;40.122;18.294;2022-07-29T05:57:47;30.80;57.50
54034;DHT22;39952;40.122;18.294;2022-07-29T06:00:54;30.80;57.30
54034;DHT22;39952;40.122;18.294;2022-07-29T06:04:04;30.90;56.00
54034;DHT22;39952;40.122;18.294;2022-07-29T06:07:11;31.00;55.40
54034;DHT22;39952;40.122;18.294;2022-07-29T06:10:17;30.90;55.40
54034;DHT22;39952;40.122;18.294;2022-07-29T06:13:27;31.00;55.10
54034;DHT22;39952;40.122;18.294;2022-07-29T06:16:33;31.30;54.00
54034;DHT22;39952;40.122;18.294;2022-07-29T06:19:40;31.70;53.00
54034;DHT22;39952;40.122;18.294;2022-07-29T06:22:47;32.00;51.80
54034;DHT22;39952;40.122;18.294;2022-07-29T06:25:54;32.00;49.90
54034;DHT22;39952;40.122;18.294;2022-07-29T06:29:02;32.20;48.40
54034;DHT22;39952;40.122;18.294;2022-07-29T06:32:09;32.20;47.30
54034;DHT22;39952;40.122;18.294;2022-07-29T06:35:16;32.10;46.60
54034;DHT22;39952;40.122;18.294;2022-07-29T06:38:38;32.00;46.40
54034;DHT22;39952;40.122;18.294;2022-07-29T06:41:49;32.00;45.60
54034;DHT22;39952;40.122;18.294;2022-07-29T06:45:01;32.00;45.70
54034;DHT22;39952;40.122;18.294;2022-07-29T06:48:11;32.30;44.20
54034;DHT22;39952;40.122;18.294;2022-07-29T06:51:19;32.30;43.70
54034;DHT22;39952;40.122;18.294;2022-07-29T06:54:25;32.20;42.70
54034;DHT22;39952;40.122;18.294;2022-07-29T06:57:32;32.20;42.70
54034;DHT22;39952;40.122;18.294;2022-07-29T07:00:40;32.10;43.10
54034;DHT22;39952;40.122;18.294;2022-07-29T07:03:46;32.10;42.90
54034;DHT22;39952;40.122;18.294;2022-07-29T07:06:54;32.30;43.40
54034;DHT22;39952;40.122;18.294;2022-07-29T07:10:01;32.60;41.60
54034;DHT22;39952;40.122;18.294;2022-07-29T07:13:07;32.80;41.70
54034;DHT22;39952;40.122;18.294;2022-07-29T07:16:15;33.10;41.20
54034;DHT22;39952;40.122;18.294;2022-07-29T07:19:22;33.10;41.80
54034;DHT22;39952;40.122;18.294;2022-07-29T07:22:29;33.30;41.90
54034;DHT22;39952;40.122;18.294;2022-07-29T07:25:38;33.10;41.60
54034;DHT22;39952;40.122;18.294;2022-07-29T07:28:45;33.20;41.70
54034;DHT22;39952;40.122;18.294;2022-07-29T07:31:53;33.10;42.70
54034;DHT22;39952;40.122;18.294;2022-07-29T07:35:06;33.30;42.50
54034;DHT22;39952;40.122;18.294;2022-07-29T07:38:13;33.30;41.70
54034;DHT22;39952;40.122;18.294;2022-07-29T07:41:20;33.40;41.90
54034;DHT22;39952;40.122;18.294;2022-07-29T07:44:26;33.60;41.00
54034;DHT22;39952;40.122;18.294;2022-07-29T07:47:34;33.70;41.30
54034;DHT22;39952;40.122;18.294;2022-07-29T07:50:41;33.50;41.30
54034;DHT22;39952;40.122;18.294;2022-07-29T07:53:48;33.60;40.70
54034;DHT22;39952;40.122;18.294;2022-07-29T07:56:55;33.70;40.90
54034;DHT22;39952;40.122;18.294;2022-07-29T08:00:02;33.50;40.60
54034;DHT22;39952;40.122;18.294;2022-07-29T08:03:17;33.60;40.00
54034;DHT22;39952;40.122;18.294;2022-07-29T08:06:24;33.60;40.20
54034;DHT22;39952;40.122;18.294;2022-07-29T08:09:31;33.70;38.50
54034;DHT22;39952;40.122;18.294;2022-07-29T08:12:38;34.10;36.90
54034;DHT22;39952;40.122;18.294;2022-07-29T08:15:45;34.30;36.40
54034;DHT22;39952;40.122;18.294;2022-07-29T08:18:53;34.00;37.80
54034;DHT22;39952;40.122;18.294;2022-07-29T08:22:02;33.80;38.80
54034;DHT22;39952;40.122;18.294;2022-07-29T08:25:09;33.70;39.40
54034;DHT22;39952;40.122;18.294;2022-07-29T08:28:16;34.00;36.70
54034;DHT22;39952;40.122;18.294;2022-07-29T08:31:23;34.10;36.80
54034;DHT22;39952;40.122;18.294;2022-07-29T08:34:31;34.30;37.50
54034;DHT22;39952;40.122;18.294;2022-07-29T08:37:38;34.30;37.00
54034;DHT22;39952;40.122;18.294;2022-07-29T08:40:45;34.40;37.50
54034;DHT22;39952;40.122;18.294;2022-07-29T08:43:52;34.40;36.00
54034;DHT22;39952;40.122;18.294;2022-07-29T08:46:59;34.30;36.30
54034;DHT22;39952;40.122;18.294;2022-07-29T08:50:08;34.50;36.20
54034;DHT22;39952;40.122;18.294;2022-07-29T08:53:17;34.30;34.70
54034;DHT22;39952;40.122;18.294;2022-07-29T08:56:23;34.50;35.60
54034;DHT22;39952;40.122;18.294;2022-07-29T08:59:33;34.60;35.20
54034;DHT22;39952;40.122;18.294;2022-07-29T09:02:45;34.80;34.50
54034;DHT22;39952;40.122;18.294;2022-07-29T09:05:54;34.90;34.00
54034;DHT22;39952;40.122;18.294;2022-07-29T09:09:02;35.30;32.80
54034;DHT22;39952;40.122;18.294;2022-07-29T09:12:09;37.00;30.20
54034;DHT22;39952;40.122;18.294;2022-07-29T09:15:17;39.60;27.40
54034;DHT22;39952;40.122;18.294;2022-07-29T09:18:34;39.80;26.10
54034;DHT22;39952;40.122;18.294;2022-07-29T09:21:42;41.30;24.20
54034;DHT22;39952;40.122;18.294;2022-07-29T09:25:06;43.50;21.50
54034;DHT22;39952;40.122;18.294;2022-07-29T09:28:14;45.60;19.60
54034;DHT22;39952;40.122;18.294;2022-07-29T09:31:34;45.30;20.00
54034;DHT22;39952;40.122;18.294;2022-07-29T09:34:41;45.50;19.50
54034;DHT22;39952;40.122;18.294;2022-07-29T09:37:50;45.60;18.30
54034;DHT22;39952;40.122;18.294;2022-07-29T09:40:57;47.20;18.40
54034;DHT22;39952;40.122;18.294;2022-07-29T09:44:04;47.60;17.70
54034;DHT22;39952;40.122;18.294;2022-07-29T09:47:11;47.90;17.80
54034;DHT22;39952;40.122;18.294;2022-07-29T09:50:18;47.90;18.00
54034;DHT22;39952;40.122;18.294;2022-07-29T09:53:35;48.70;17.20
54034;DHT22;39952;40.122;18.294;2022-07-29T09:56:42;48.90;17.20
54034;DHT22;39952;40.122;18.294;2022-07-29T09:59:56;49.90;16.60
54034;DHT22;39952;40.122;18.294;2022-07-29T10:03:03;50.30;16.70
54034;DHT22;39952;40.122;18.294;2022-07-29T10:06:11;49.20;17.40
54034;DHT22;39952;40.122;18.294;2022-07-29T10:09:20;47.90;18.50
54034;DHT22;39952;40.122;18.294;2022-07-29T10:12:27;48.70;18.00
54034;DHT22;39952;40.122;18.294;2022-07-29T10:15:35;48.90;18.40
54034;DHT22;39952;40.122;18.294;2022-07-29T10:18:44;49.10;18.10
54034;DHT22;39952;40.122;18.294;2022-07-29T10:21:52;48.20;18.50
54034;DHT22;39952;40.122;18.294;2022-07-29T10:25:03;47.50;19.20
54034;DHT22;39952;40.122;18.294;2022-07-29T10:28:10;47.90;18.40
54034;DHT22;39952;40.122;18.294;2022-07-29T10:31:29;48.40;18.10
54034;DHT22;39952;40.122;18.294;2022-07-29T10:38:27;47.90;18.20
54034;DHT22;39952;40.122;18.294;2022-07-29T10:41:47;46.50;19.10
54034;DHT22;39952;40.122;18.294;2022-07-29T10:44:55;46.20;19.30
54034;DHT22;39952;40.122;18.294;2022-07-29T10:48:03;45.90;19.70
54034;DHT22;39952;40.122;18.294;2022-07-29T10:51:11;45.20;20.20
54034;DHT22;39952;40.122;18.294;2022-07-29T10:54:18;44.50;20.50
54034;DHT22;39952;40.122;18.294;2022-07-29T10:57:29;43.10;21.40
54034;DHT22;39952;40.122;18.294;2022-07-29T11:00:37;42.00;22.80
54034;DHT22;39952;40.122;18.294;2022-07-29T11:03:46;41.20;23.30
54034;DHT22;39952;40.122;18.294;2022-07-29T11:07:07;40.40;24.00
54034;DHT22;39952;40.122;18.294;2022-07-29T11:10:24;40.40;24.20
54034;DHT22;39952;40.122;18.294;2022-07-29T11:13:49;39.80;24.70
54034;DHT22;39952;40.122;18.294;2022-07-29T11:17:01;38.90;25.40
54034;DHT22;39952;40.122;18.294;2022-07-29T11:20:32;38.90;26.00
54034;DHT22;39952;40.122;18.294;2022-07-29T11:23:38;39.20;26.20
54034;DHT22;39952;40.122;18.294;2022-07-29T11:27:10;39.10;26.40
54034;DHT22;39952;40.122;18.294;2022-07-29T11:30:18;39.10;26.90
54034;DHT22;39952;40.122;18.294;2022-07-29T11:33:29;38.60;27.40
54034;DHT22;39952;40.122;18.294;2022-07-29T11:40:36;38.10;26.70
54034;DHT22;39952;40.122;18.294;2022-07-29T11:43:46;38.30;28.10
54034;DHT22;39952;40.122;18.294;2022-07-29T11:46:54;38.50;27.00
54034;DHT22;39952;40.122;18.294;2022-07-29T11:50:02;38.00;27.60
54034;DHT22;39952;40.122;18.294;2022-07-29T11:53:11;38.30;26.70
54034;DHT22;39952;40.122;18.294;2022-07-29T11:56:21;38.90;25.50
54034;DHT22;39952;40.122;18.294;2022-07-29T11:59:28;38.70;26.70
54034;DHT22;39952;40.122;18.294;2022-07-29T12:02:42;38.60;26.70
54034;DHT22;39952;40.122;18.294;2022-07-29T12:05:49;38.50;26.50
54034;DHT22;39952;40.122;18.294;2022-07-29T12:08:57;38.60;26.50
54034;DHT22;39952;40.122;18.294;2022-07-29T12:12:04;38.50;26.90
54034;DHT22;39952;40.122;18.294;2022-07-29T12:15:15;39.00;25.20
54034;DHT22;39952;40.122;18.294;2022-07-29T12:18:27;39.10;26.40
54034;DHT22;39952;40.122;18.294;2022-07-29T12:21:44;38.80;26.60
54034;DHT22;39952;40.122;18.294;2022-07-29T12:24:50;39.10;25.70
54034;DHT22;39952;40.122;18.294;2022-07-29T12:28:01;39.60;25.40
54034;DHT22;39952;40.122;18.294;2022-07-29T12:31:13;39.80;25.10
54034;DHT22;39952;40.122;18.294;2022-07-29T12:34:23;39.80;24.40
54034;DHT22;39952;40.122;18.294;2022-07-29T12:37:30;39.80;24.70
54034;DHT22;39952;40.122;18.294;2022-07-29T12:40:37;39.70;24.30
54034;DHT22;39952;40.122;18.294;2022-07-29T12:43:52;39.50;24.80
54034;DHT22;39952;40.122;18.294;2022-07-29T12:47:03;39.60;24.70
54034;DHT22;39952;40.122;18.294;2022-07-29T12:50:13;40.10;24.90
54034;DHT22;39952;40.122;18.294;2022-07-29T12:53:24;40.20;25.40
54034;DHT22;39952;40.122;18.294;2022-07-29T12:56:32;40.10;25.90
54034;DHT22;39952;40.122;18.294;2022-07-29T13:00:05;39.70;25.50
54034;DHT22;39952;40.122;18.294;2022-07-29T13:03:14;39.20;26.20
54034;DHT22;39952;40.122;18.294;2022-07-29T13:06:30;39.30;27.00
54034;DHT22;39952;40.122;18.294;2022-07-29T13:09:38;39.50;27.80
54034;DHT22;39952;40.122;18.294;2022-07-29T13:13:05;39.70;27.60
54034;DHT22;39952;40.122;18.294;2022-07-29T13:16:13;39.30;28.00
54034;DHT22;39952;40.122;18.294;2022-07-29T13:19:20;39.60;27.40
54034;DHT22;39952;40.122;18.294;2022-07-29T13:22:40;39.70;27.00
54034;DHT22;39952;40.122;18.294;2022-07-29T13:25:48;39.40;27.20
54034;DHT22;39952;40.122;18.294;2022-07-29T13:28:55;39.70;27.50
54034;DHT22;39952;40.122;18.294;2022-07-29T13:32:02;39.50;27.60
54034;DHT22;39952;40.122;18.294;2022-07-29T13:35:09;39.30;27.80
54034;DHT22;39952;40.122;18.294;2022-07-29T13:38:17;39.00;28.50
54034;DHT22;39952;40.122;18.294;2022-07-29T13:41:24;38.70;28.40
54034;DHT22;39952;40.122;18.294;2022-07-29T13:44:30;39.20;27.50
54034;DHT22;39952;40.122;18.294;2022-07-29T13:47:38;39.80;26.20
54034;DHT22;39952;40.122;18.294;2022-07-29T13:50:46;39.80;26.10
54034;DHT22;39952;40.122;18.294;2022-07-29T13:53:54;39.80;26.30
54034;DHT22;39952;40.122;18.294;2022-07-29T13:57:00;39.50;26.20
54034;DHT22;39952;40.122;18.294;2022-07-29T14:00:09;39.80;26.00
54034;DHT22;39952;40.122;18.294;2022-07-29T14:03:16;39.80;26.70
54034;DHT22;39952;40.122;18.294;2022-07-29T14:06:23;39.80;26.90
54034;DHT22;39952;40.122;18.294;2022-07-29T14:09:31;39.80;26.70
54034;DHT22;39952;40.122;18.294;2022-07-29T14:12:38;40.20;26.30
54034;DHT22;39952;40.122;18.294;2022-07-29T14:15:47;39.70;26.70
54034;DHT22;39952;40.122;18.294;2022-07-29T14:18:54;39.40;26.90
54034;DHT22;39952;40.122;18.294;2022-07-29T14:22:01;39.30;26.70
54034;DHT22;39952;40.122;18.294;2022-07-29T14:25:09;39.00;27.70
54034;DHT22;39952;40.122;18.294;2022-07-29T14:28:16;38.40;27.70
54034;DHT22;39952;40.122;18.294;2022-07-29T14:31:22;37.70;29.10
54034;DHT22;39952;40.122;18.294;2022-07-29T14:34:29;37.80;29.10
54034;DHT22;39952;40.122;18.294;2022-07-29T14:37:35;37.80;28.80
54034;DHT22;39952;40.122;18.294;2022-07-29T14:40:44;38.50;28.30
54034;DHT22;39952;40.122;18.294;2022-07-29T14:43:51;38.50;28.30
54034;DHT22;39952;40.122;18.294;2022-07-29T14:46:58;38.10;28.80
54034;DHT22;39952;40.122;18.294;2022-07-29T14:50:06;37.70;30.30
54034;DHT22;39952;40.122;18.294;2022-07-29T14:53:13;37.80;29.70
54034;DHT22;39952;40.122;18.294;2022-07-29T14:56:22;37.60;29.60
54034;DHT22;39952;40.122;18.294;2022-07-29T14:59:44;37.80;28.60
54034;DHT22;39952;40.122;18.294;2022-07-29T15:02:50;37.20;29.60
54034;DHT22;39952;40.122;18.294;2022-07-29T15:06:06;36.70;31.30
54034;DHT22;39952;40.122;18.294;2022-07-29T15:09:12;36.70;31.10
54034;DHT22;39952;40.122;18.294;2022-07-29T15:12:20;36.70;30.50
54034;DHT22;39952;40.122;18.294;2022-07-29T15:15:27;36.70;30.40
54034;DHT22;39952;40.122;18.294;2022-07-29T15:18:33;36.70;32.10
54034;DHT22;39952;40.122;18.294;2022-07-29T15:21:40;36.80;31.90
54034;DHT22;39952;40.122;18.294;2022-07-29T15:24:47;36.50;31.10
54034;DHT22;39952;40.122;18.294;2022-07-29T15:27:55;36.50;32.20
54034;DHT22;39952;40.122;18.294;2022-07-29T15:31:05;36.30;32.40
54034;DHT22;39952;40.122;18.294;2022-07-29T15:34:12;36.10;32.70
54034;DHT22;39952;40.122;18.294;2022-07-29T15:37:18;35.80;33.00
54034;DHT22;39952;40.122;18.294;2022-07-29T15:40:25;35.90;32.60
54034;DHT22;39952;40.122;18.294;2022-07-29T15:43:33;36.10;31.90
54034;DHT22;39952;40.122;18.294;2022-07-29T15:46:40;36.30;31.70
54034;DHT22;39952;40.122;18.294;2022-07-29T15:50:04;36.10;32.40
54034;DHT22;39952;40.122;18.294;2022-07-29T15:53:17;36.10;31.20
54034;DHT22;39952;40.122;18.294;2022-07-29T15:56:24;35.90;30.30
54034;DHT22;39952;40.122;18.294;2022-07-29T15:59:33;35.90;31.90
54034;DHT22;39952;40.122;18.294;2022-07-29T16:02:39;36.00;32.30
54034;DHT22;39952;40.122;18.294;2022-07-29T16:05:46;35.80;32.90
54034;DHT22;39952;40.122;18.294;2022-07-29T16:08:53;35.70;33.30
54034;DHT22;39952;40.122;18.294;2022-07-29T16:12:00;35.70;34.20
54034;DHT22;39952;40.122;18.294;2022-07-29T16:15:08;35.50;34.70
54034;DHT22;39952;40.122;18.294;2022-07-29T16:18:15;35.70;34.50
54034;DHT22;39952;40.122;18.294;2022-07-29T16:21:21;35.40;34.20
54034;DHT22;39952;40.122;18.294;2022-07-29T16:24:28;35.60;33.90
54034;DHT22;39952;40.122;18.294;2022-07-29T16:27:36;35.40;34.20
54034;DHT22;39952;40.122;18.294;2022-07-29T16:30:44;35.00;35.00
54034;DHT22;39952;40.122;18.294;2022-07-29T16:33:51;35.20;35.30
54034;DHT22;39952;40.122;18.294;2022-07-29T16:36:58;35.30;35.30
54034;DHT22;39952;40.122;18.294;2022-07-29T16:40:07;35.20;35.40
54034;DHT22;39952;40.122;18.294;2022-07-29T16:43:14;35.10;35.30
54034;DHT22;39952;40.122;18.294;2022-07-29T16:46:22;35.00;35.70
54034;DHT22;39952;40.122;18.294;2022-07-29T16:49:29;35.10;34.90
54034;DHT22;39952;40.122;18.294;2022-07-29T16:52:36;35.10;35.50
54034;DHT22;39952;40.122;18.294;2022-07-29T16:55:49;35.00;35.50
54034;DHT22;39952;40.122;18.294;2022-07-29T16:59:00;34.80;35.30
54034;DHT22;39952;40.122;18.294;2022-07-29T17:02:09;34.80;35.10
54034;DHT22;39952;40.122;18.294;2022-07-29T17:05:16;35.00;34.70
54034;DHT22;39952;40.122;18.294;2022-07-29T17:08:22;35.20;34.20
54034;DHT22;39952;40.122;18.294;2022-07-29T17:11:29;35.10;34.50
54034;DHT22;39952;40.122;18.294;2022-07-29T17:14:36;34.90;35.60
54034;DHT22;39952;40.122;18.294;2022-07-29T17:17:46;34.80;36.10
54034;DHT22;39952;40.122;18.294;2022-07-29T17:20:54;34.60;36.40
54034;DHT22;39952;40.122;18.294;2022-07-29T17:24:00;34.30;36.70
54034;DHT22;39952;40.122;18.294;2022-07-29T17:27:07;34.30;36.70
54034;DHT22;39952;40.122;18.294;2022-07-29T17:30:14;34.40;36.70
54034;DHT22;39952;40.122;18.294;2022-07-29T17:33:22;34.30;36.10
54034;DHT22;39952;40.122;18.294;2022-07-29T17:36:29;34.30;36.50
54034;DHT22;39952;40.122;18.294;2022-07-29T17:39:36;34.50;36.50
54034;DHT22;39952;40.122;18.294;2022-07-29T17:42:44;34.30;37.20
54034;DHT22;39952;40.122;18.294;2022-07-29T17:45:51;34.20;37.20
54034;DHT22;39952;40.122;18.294;2022-07-29T17:49:02;34.20;37.40
54034;DHT22;39952;40.122;18.294;2022-07-29T17:52:09;34.30;37.70
54034;DHT22;39952;40.122;18.294;2022-07-29T17:55:17;34.20;38.10
54034;DHT22;39952;40.122;18.294;2022-07-29T17:58:24;34.10;38.80
54034;DHT22;39952;40.122;18.294;2022-07-29T18:01:31;34.10;39.40
54034;DHT22;39952;40.122;18.294;2022-07-29T18:04:39;33.90;39.70
54034;DHT22;39952;40.122;18.294;2022-07-29T18:07:46;33.80;40.20
54034;DHT22;39952;40.122;18.294;2022-07-29T18:10:53;33.80;40.20
54034;DHT22;39952;40.122;18.294;2022-07-29T18:14:00;33.80;40.00
54034;DHT22;39952;40.122;18.294;2022-07-29T18:17:07;33.80;39.90
54034;DHT22;39952;40.122;18.294;2022-07-29T18:20:16;34.00;39.50
54034;DHT22;39952;40.122;18.294;2022-07-29T18:23:23;34.10;39.30
54034;DHT22;39952;40.122;18.294;2022-07-29T18:26:29;34.20;38.80
54034;DHT22;39952;40.122;18.294;2022-07-29T18:29:36;34.00;39.40
54034;DHT22;39952;40.122;18.294;2022-07-29T18:32:42;33.70;40.30
54034;DHT22;39952;40.122;18.294;2022-07-29T18:36:00;33.50;40.60
54034;DHT22;39952;40.122;18.294;2022-07-29T18:39:06;33.40;41.10
54034;DHT22;39952;40.122;18.294;2022-07-29T18:42:13;33.30;41.10
54034;DHT22;39952;40.122;18.294;2022-07-29T18:45:22;33.20;41.50
54034;DHT22;39952;40.122;18.294;2022-07-29T18:48:28;33.20;41.50
54034;DHT22;39952;40.122;18.294;2022-07-29T18:51:38;33.20;41.50
54034;DHT22;39952;40.122;18.294;2022-07-29T18:54:45;33.30;41.50
54034;DHT22;39952;40.122;18.294;2022-07-29T18:57:51;33.40;41.00
54034;DHT22;39952;40.122;18.294;2022-07-29T19:00:59;33.30;41.10
54034;DHT22;39952;40.122;18.294;2022-07-29T19:04:06;33.20;41.60
54034;DHT22;39952;40.122;18.294;2022-07-29T19:07:14;33.30;40.70
54034;DHT22;39952;40.122;18.294;2022-07-29T19:10:22;33.40;41.50
54034;DHT22;39952;40.122;18.294;2022-07-29T19:13:28;32.90;42.50
54034;DHT22;39952;40.122;18.294;2022-07-29T19:16:35;32.70;43.30
54034;DHT22;39952;40.122;18.294;2022-07-29T19:19:41;32.30;44.20
54034;DHT22;39952;40.122;18.294;2022-07-29T19:22:49;32.10;44.80
54034;DHT22;39952;40.122;18.294;2022-07-29T19:25:56;32.00;45.00
54034;DHT22;39952;40.122;18.294;2022-07-29T19:29:03;32.10;45.00
54034;DHT22;39952;40.122;18.294;2022-07-29T19:32:10;32.00;45.20
54034;DHT22;39952;40.122;18.294;2022-07-29T19:35:18;31.90;45.30
54034;DHT22;39952;40.122;18.294;2022-07-29T19:38:34;31.60;46.50
54034;DHT22;39952;40.122;18.294;2022-07-29T19:41:42;31.80;46.40